Time;durP1;ratioP1;P1;durP2;ratioP2;P2;SDS_P1;SDS_P2;PMS_P1;PMS_P2;Temp;Humidity;BMP_temperature;BMP_pressure;BME280_temperature;BME280_humidity;BME280_pressure;Samples;Min_cycle;Max_cycle;Signal;HPM_P1;HPM_P2
2024/01/30 00:00:13;;;;;;;9.15;5.38;;;10.20;99.90;;;;;;5140919;27;20046;-59
2024/01/30 00:02:39;;;;;;;9.68;4.90;;;10.20;99.90;;;;;;5140854;27;20019;-60
2024/01/30 00:05:05;;;;;;;7.00;5.15;;;10.20;99.90;;;;;;5122975;27;20302;-59
2024/01/30 00:07:31;;;;;;;7.03;4.97;;;10.30;99.90;;;;;;5140822;27;20046;-59
2024/01/30 00:09:57;;;;;;;7.43;5.43;;;10.30;99.90;;;;;;5140747;27;20027;-60
2024/01/30 00:12:24;;;;;;;8.50;5.20;;;10.30;99.90;;;;;;5140664;27;20420;-59
2024/01/30 00:14:50;;;;;;;8.05;5.00;;;10.30;99.90;;;;;;5140656;27;20023;-60
2024/01/30 00:17:15;;;;;;;5.38;4.63;;;10.30;99.90;;;;;;5140553;27;20110;-60
2024/01/30 00:19:41;;;;;;;5.80;4.75;;;10.30;99.90;;;;;;5122834;27;20070;-60
2024/01/30 00:22:07;;;;;;;7.32;5.05;;;10.30;99.90;;;;;;5122938;27;20039;-60
2024/01/30 00:24:33;;;;;;;7.18;4.78;;;10.30;99.90;;;;;;5140766;27;20418;-59
2024/01/30 00:26:59;;;;;;;8.15;4.85;;;10.30;99.90;;;;;;5140597;27;20106;-59
2024/01/30 00:29:30;;;;;;;6.60;4.65;;;10.40;99.90;;;;;;5122594;27;20031;-61
2024/01/30 00:31:56;;;;;;;7.53;5.55;;;10.40;99.90;;;;;;5140475;27;20306;-59
2024/01/30 00:34:22;;;;;;;9.80;4.32;;;10.40;99.90;;;;;;5140208;27;20041;-59
2024/01/30 00:36:47;;;;;;;7.68;5.32;;;10.40;99.90;;;;;;5122450;27;20275;-59
2024/01/30 00:39:15;;;;;;;10.38;5.93;;;10.50;99.90;;;;;;5140024;27;20131;-59
2024/01/30 00:41:41;;;;;;;7.32;5.00;;;10.50;99.90;;;;;;5140125;27;20031;-60
2024/01/30 00:44:07;;;;;;;8.73;4.72;;;10.50;99.90;;;;;;5139748;27;20034;-59
2024/01/30 00:46:33;;;;;;;7.07;4.95;;;10.50;99.90;;;;;;5140073;27;20039;-59
2024/01/30 00:48:58;;;;;;;5.95;4.60;;;10.50;99.90;;;;;;5140234;27;20099;-60
2024/01/30 00:51:24;;;;;;;8.70;5.10;;;10.50;99.90;;;;;;5140069;27;20031;-60
2024/01/30 00:53:50;;;;;;;6.47;5.05;;;10.50;99.90;;;;;;5105074;27;20134;-59
2024/01/30 00:56:18;;;;;;;7.80;4.65;;;10.50;99.90;;;;;;5139791;27;20398;-60
2024/01/30 00:58:44;;;;;;;6.95;4.93;;;10.60;99.90;;;;;;5121943;27;20034;-59
2024/01/30 01:01:09;;;;;;;6.82;4.53;;;10.60;99.90;;;;;;5104947;27;20027;-59
2024/01/30 01:03:35;;;;;;;8.18;4.78;;;10.50;99.90;;;;;;5139641;27;20100;-59
2024/01/30 01:06:01;;;;;;;7.70;4.45;;;10.50;99.90;;;;;;5121849;27;20061;-59
2024/01/30 01:08:27;;;;;;;5.75;4.43;;;10.50;99.90;;;;;;5121793;27;20098;-60
2024/01/30 01:10:53;;;;;;;6.68;5.00;;;10.50;99.90;;;;;;5139817;27;20050;-59
2024/01/30 01:13:19;;;;;;;9.02;4.60;;;10.50;99.90;;;;;;5139646;27;20154;-58
2024/01/30 01:15:45;;;;;;;7.93;4.75;;;10.50;99.90;;;;;;5139368;27;20394;-60
2024/01/30 01:18:11;;;;;;;7.53;4.63;;;10.50;99.90;;;;;;5139407;27;20054;-61
2024/01/30 01:20:37;;;;;;;6.28;4.60;;;10.50;99.90;;;;;;5139240;27;20035;-58
2024/01/30 01:23:03;;;;;;;7.60;5.05;;;10.50;99.90;;;;;;5139269;27;20059;-59
2024/01/30 01:25:29;;;;;;;7.50;5.00;;;10.50;99.90;;;;;;5139245;27;20122;-59
2024/01/30 01:27:55;;;;;;;6.90;4.70;;;10.50;99.90;;;;;;5139211;27;20110;-59
2024/01/30 01:30:21;;;;;;;7.28;4.85;;;10.50;99.90;;;;;;5139160;27;20122;-58
2024/01/30 01:32:54;;;;;;;7.68;4.78;;;10.50;99.90;;;;;;5139112;27;20038;-59
2024/01/30 01:35:26;;;;;;;6.95;4.78;;;10.50;99.90;;;;;;5139065;27;20355;-59
2024/01/30 01:37:56;;;;;;;7.85;4.65;;;10.50;99.90;;;;;;5139077;27;20051;-59
2024/01/30 01:40:29;;;;;;;7.32;4.90;;;10.50;99.90;;;;;;5139009;27;20051;-59
2024/01/30 01:42:56;;;;;;;7.00;4.78;;;10.50;99.90;;;;;;5121074;27;20028;-59
2024/01/30 01:45:22;;;;;;;7.40;4.85;;;10.50;99.90;;;;;;5138878;27;20023;-59
2024/01/30 01:47:51;;;;;;;8.77;5.00;;;10.40;99.90;;;;;;5138777;27;20034;-59
2024/01/30 01:50:18;;;;;;;7.15;4.78;;;10.40;99.90;;;;;;5138837;27;20035;-59
2024/01/30 01:52:47;;;;;;;7.07;4.75;;;10.40;99.90;;;;;;5138676;27;20062;-58
2024/01/30 01:55:14;;;;;;;6.20;4.78;;;10.40;99.90;;;;;;5137916;27;20055;-59
2024/01/30 01:57:41;;;;;;;10.05;5.13;;;10.40;99.90;;;;;;5138690;27;20034;-59
2024/01/30 02:00:10;;;;;;;8.23;4.82;;;10.40;99.90;;;;;;5139103;27;20027;-59
2024/01/30 02:02:36;;;;;;;6.30;4.95;;;10.30;99.90;;;;;;5138796;27;20312;-59
2024/01/30 02:05:03;;;;;;;5.78;4.40;;;10.30;99.90;;;;;;5120775;27;20042;-59
2024/01/30 02:07:29;;;;;;;7.53;4.78;;;10.30;99.90;;;;;;5138419;27;20035;-59
2024/01/30 02:09:56;;;;;;;7.35;4.97;;;10.30;99.90;;;;;;5120856;27;20023;-58
2024/01/30 02:12:21;;;;;;;10.50;5.85;;;10.20;99.90;;;;;;5120461;27;20054;-59
2024/01/30 02:14:48;;;;;;;9.80;4.80;;;10.20;99.90;;;;;;5138304;27;20043;-58
2024/01/30 02:17:15;;;;;;;6.35;4.40;;;10.20;99.90;;;;;;5138313;27;20327;-59
2024/01/30 02:19:41;;;;;;;7.18;4.90;;;10.20;99.90;;;;;;5138340;27;20019;-60
2024/01/30 02:22:07;;;;;;;7.80;5.70;;;10.20;99.90;;;;;;5120404;27;20164;-61
2024/01/30 02:24:33;;;;;;;9.45;5.32;;;10.20;99.90;;;;;;5138569;27;20294;-59
2024/01/30 02:26:59;;;;;;;8.48;5.05;;;10.30;99.90;;;;;;5138373;27;20031;-60
2024/01/30 02:29:25;;;;;;;9.90;5.30;;;10.30;99.90;;;;;;5103486;27;20031;-60
2024/01/30 02:31:52;;;;;;;8.90;5.13;;;10.30;99.90;;;;;;5138102;27;20038;-60
2024/01/30 02:34:19;;;;;;;8.07;5.00;;;10.30;99.90;;;;;;5120344;27;20129;-59
2024/01/30 02:36:45;;;;;;;9.15;5.43;;;10.20;99.90;;;;;;5137977;27;20118;-59
2024/01/30 02:39:11;;;;;;;8.27;5.32;;;10.20;99.90;;;;;;5120048;28;20055;-61
2024/01/30 02:41:37;;;;;;;7.88;5.28;;;10.30;99.90;;;;;;5120008;28;20382;-60
2024/01/30 02:44:04;;;;;;;8.90;5.13;;;10.30;99.90;;;;;;5120197;28;20341;-59
2024/01/30 02:46:30;;;;;;;6.68;5.03;;;10.40;99.90;;;;;;5137880;28;20031;-59
2024/01/30 02:48:55;;;;;;;6.72;4.53;;;10.40;99.90;;;;;;5137959;28;20378;-59
2024/01/30 02:51:21;;;;;;;8.50;4.68;;;10.40;99.90;;;;;;5138029;28;20425;-60
2024/01/30 02:53:47;;;;;;;7.00;4.50;;;10.40;99.90;;;;;;5137809;28;20035;-59
2024/01/30 02:56:13;;;;;;;10.75;5.10;;;10.40;99.90;;;;;;5119928;28;20451;-59
2024/01/30 02:58:40;;;;;;;10.18;5.22;;;10.40;99.90;;;;;;5137879;28;20015;-58
2024/01/30 03:01:07;;;;;;;9.82;4.72;;;10.50;99.90;;;;;;5137801;28;20027;-59
2024/01/30 03:03:35;;;;;;;7.07;4.60;;;10.50;99.90;;;;;;5137744;28;20023;-59
2024/01/30 03:06:00;;;;;;;8.88;4.72;;;10.50;99.90;;;;;;5137634;28;20033;-59
2024/01/30 03:08:26;;;;;;;9.15;4.88;;;10.50;99.90;;;;;;5141623;27;20019;-60
2024/01/30 03:10:52;;;;;;;6.78;4.72;;;10.50;99.90;;;;;;5124362;27;20031;-61
2024/01/30 03:13:18;;;;;;;8.60;4.97;;;10.50;99.90;;;;;;5141882;27;20057;-59
2024/01/30 03:15:44;;;;;;;8.23;5.25;;;10.60;99.90;;;;;;5141742;27;20031;-59
2024/01/30 03:18:09;;;;;;;6.55;4.40;;;10.60;99.90;;;;;;5141728;27;20037;-60
2024/01/30 03:20:35;;;;;;;8.80;5.15;;;10.60;99.90;;;;;;5141744;27;20393;-60
2024/01/30 03:23:01;;;;;;;8.07;4.85;;;10.70;99.90;;;;;;5123631;27;20027;-60
2024/01/30 03:25:27;;;;;;;7.50;5.00;;;10.70;99.90;;;;;;5123712;27;20035;-60
2024/01/30 03:27:53;;;;;;;8.77;5.20;;;10.70;99.90;;;;;;5141582;27;20042;-61
2024/01/30 03:30:18;;;;;;;6.72;4.72;;;10.70;99.90;;;;;;5141530;27;20083;-60
2024/01/30 03:32:44;;;;;;;8.57;4.80;;;10.70;99.90;;;;;;5123399;27;20031;-58
2024/01/30 03:35:10;;;;;;;7.88;4.45;;;10.70;99.90;;;;;;5141371;27;20035;-58
2024/01/30 03:37:36;;;;;;;7.22;4.43;;;10.70;99.90;;;;;;5141151;27;20039;-59
2024/01/30 03:40:03;;;;;;;6.97;4.88;;;10.70;99.90;;;;;;5123504;27;20046;-59
2024/01/30 03:42:29;;;;;;;8.13;5.22;;;10.80;99.90;;;;;;5141285;27;20023;-60
2024/01/30 03:44:55;;;;;;;7.15;4.50;;;10.80;99.90;;;;;;5141301;27;20034;-59
2024/01/30 03:47:21;;;;;;;6.85;4.68;;;10.80;99.90;;;;;;5141179;27;20038;-59
2024/01/30 03:49:47;;;;;;;9.50;5.35;;;10.80;99.90;;;;;;5123416;27;20035;-58
2024/01/30 03:52:13;;;;;;;8.93;4.95;;;10.80;99.90;;;;;;5141325;27;20068;-59
2024/01/30 03:54:39;;;;;;;7.68;4.60;;;10.80;99.90;;;;;;5140996;27;20038;-60
2024/01/30 03:57:05;;;;;;;8.25;4.78;;;10.80;99.90;;;;;;5140928;27;20114;-59
2024/01/30 03:59:31;;;;;;;8.32;4.85;;;10.80;99.90;;;;;;5123222;27;20062;-59
2024/01/30 04:01:57;;;;;;;9.50;4.75;;;10.80;99.90;;;;;;5141100;27;20405;-59
2024/01/30 04:04:23;;;;;;;6.95;4.88;;;10.80;99.90;;;;;;5140904;27;20421;-59
2024/01/30 04:06:49;;;;;;;9.90;4.55;;;10.80;99.90;;;;;;5140789;27;20083;-59
2024/01/30 04:09:14;;;;;;;8.02;4.93;;;10.80;99.90;;;;;;5140756;27;20091;-58
2024/01/30 04:11:41;;;;;;;7.68;4.93;;;10.80;99.90;;;;;;5105984;27;20110;-58
2024/01/30 04:14:08;;;;;;;8.73;4.78;;;10.80;99.90;;;;;;5140686;27;20030;-58
2024/01/30 04:16:34;;;;;;;7.57;4.88;;;10.70;99.90;;;;;;5122830;27;20031;-59
2024/01/30 04:19:00;;;;;;;7.50;4.72;;;10.80;99.90;;;;;;5139900;27;20044;-59
2024/01/30 04:21:25;;;;;;;11.32;4.85;;;10.80;99.90;;;;;;5140619;27;20031;-59
2024/01/30 04:23:52;;;;;;;10.27;5.07;;;10.80;99.90;;;;;;5140374;27;20325;-60
2024/01/30 04:26:18;;;;;;;7.57;4.43;;;10.80;99.90;;;;;;5140486;27;20027;-60
2024/01/30 04:28:45;;;;;;;8.60;4.88;;;10.80;99.90;;;;;;5122572;27;20091;-60
2024/01/30 04:31:11;;;;;;;7.85;4.80;;;10.80;99.90;;;;;;5122494;27;20035;-60
2024/01/30 04:33:37;;;;;;;8.48;4.72;;;10.80;99.90;;;;;;5122357;27;20031;-60
2024/01/30 04:36:03;;;;;;;10.27;4.82;;;10.80;99.90;;;;;;5140437;27;20440;-60
2024/01/30 04:38:29;;;;;;;8.07;4.68;;;10.90;99.90;;;;;;5118646;28;20079;-61
2024/01/30 04:40:55;;;;;;;7.05;4.57;;;10.90;99.90;;;;;;5119618;28;20059;-59
2024/01/30 04:43:21;;;;;;;6.18;4.40;;;10.80;99.90;;;;;;5118899;28;20107;-60
2024/01/30 04:45:47;;;;;;;8.55;4.65;;;10.90;99.90;;;;;;5118723;28;20046;-60
2024/01/30 04:48:13;;;;;;;9.35;5.25;;;10.90;99.90;;;;;;5119927;28;20031;-58
2024/01/30 04:50:39;;;;;;;9.02;5.28;;;10.90;99.90;;;;;;5119474;28;20042;-60
2024/01/30 04:53:05;;;;;;;8.27;4.82;;;10.90;99.90;;;;;;5118655;28;20039;-60
2024/01/30 04:55:30;;;;;;;7.75;4.45;;;10.90;99.90;;;;;;5119301;28;20357;-59
2024/01/30 04:57:56;;;;;;;8.02;4.93;;;10.90;99.90;;;;;;5118683;28;20034;-59
2024/01/30 05:00:22;;;;;;;6.80;4.55;;;10.90;99.90;;;;;;5101632;28;20403;-59
2024/01/30 05:02:48;;;;;;;8.00;4.82;;;10.90;99.90;;;;;;5119121;28;20065;-60
2024/01/30 05:05:14;;;;;;;9.32;5.35;;;10.90;99.90;;;;;;5118520;28;20299;-59
2024/01/30 05:07:41;;;;;;;9.18;4.78;;;10.90;99.90;;;;;;5119042;28;20070;-60
2024/01/30 05:10:08;;;;;;;8.18;4.63;;;10.90;99.90;;;;;;5119051;28;20047;-60
2024/01/30 05:12:34;;;;;;;9.55;4.93;;;10.90;99.90;;;;;;5118940;28;20035;-60
2024/01/30 05:15:00;;;;;;;7.60;4.82;;;10.90;99.90;;;;;;5118185;28;20421;-60
2024/01/30 05:17:25;;;;;;;10.35;4.82;;;10.90;99.90;;;;;;5101344;28;20032;-60
2024/01/30 05:19:51;;;;;;;7.68;4.47;;;10.90;99.90;;;;;;5118912;27;20027;-59
2024/01/30 05:22:18;;;;;;;8.23;4.57;;;10.90;99.90;;;;;;5118201;28;20110;-59
2024/01/30 05:24:45;;;;;;;8.80;4.78;;;10.90;99.90;;;;;;5118690;28;20031;-60
2024/01/30 05:27:13;;;;;;;9.50;5.10;;;10.90;99.90;;;;;;5101002;28;20042;-61
2024/01/30 05:29:39;;;;;;;7.28;4.70;;;10.90;99.90;;;;;;5118317;28;20040;-59
2024/01/30 05:32:06;;;;;;;10.13;5.45;;;10.90;99.90;;;;;;5117961;28;20031;-59
2024/01/30 05:34:32;;;;;;;8.55;4.90;;;10.90;99.90;;;;;;5100800;28;20402;-58
2024/01/30 05:36:57;;;;;;;7.95;4.72;;;10.90;99.90;;;;;;5118723;27;20024;-58
2024/01/30 05:39:23;;;;;;;10.07;4.75;;;10.90;99.90;;;;;;5134802;27;20051;-59
2024/01/30 05:41:49;;;;;;;9.70;5.10;;;10.90;99.90;;;;;;5138952;27;20035;-59
2024/01/30 05:44:15;;;;;;;12.35;5.55;;;10.90;99.90;;;;;;5138877;27;20046;-59
2024/01/30 05:46:41;;;;;;;9.80;5.32;;;10.90;99.90;;;;;;5138826;27;20287;-59
2024/01/30 05:49:07;;;;;;;6.75;4.63;;;10.90;99.90;;;;;;5138802;27;20042;-59
2024/01/30 05:51:33;;;;;;;8.45;4.63;;;10.90;99.90;;;;;;5120937;27;20206;-59
2024/01/30 05:53:59;;;;;;;8.55;5.20;;;10.90;99.90;;;;;;5138515;27;20354;-59
2024/01/30 05:56:25;;;;;;;9.07;4.72;;;10.90;99.90;;;;;;5121103;27;20031;-60
2024/01/30 05:58:50;;;;;;;10.98;5.63;;;10.90;99.90;;;;;;5138683;27;20298;-59
2024/01/30 06:01:16;;;;;;;8.07;4.90;;;10.90;99.90;;;;;;5138373;27;20278;-59
2024/01/30 06:03:43;;;;;;;10.95;5.43;;;10.90;99.90;;;;;;5138495;27;20031;-60
2024/01/30 06:06:09;;;;;;;12.80;5.45;;;10.90;99.90;;;;;;5138407;27;20342;-61
2024/01/30 06:08:35;;;;;;;9.82;5.47;;;10.90;99.90;;;;;;5138396;27;20043;-59
2024/01/30 06:11:01;;;;;;;11.20;5.50;;;10.90;99.90;;;;;;5120608;27;20100;-60
2024/01/30 06:13:27;;;;;;;9.63;5.18;;;10.90;99.90;;;;;;5120313;27;20023;-60
2024/01/30 06:15:53;;;;;;;8.23;4.97;;;10.90;99.90;;;;;;5137991;27;20035;-59
2024/01/30 06:18:19;;;;;;;9.02;4.80;;;10.80;99.90;;;;;;5120388;27;20305;-59
2024/01/30 06:20:44;;;;;;;8.57;4.80;;;10.90;99.90;;;;;;5120191;27;20084;-58
2024/01/30 06:23:12;;;;;;;9.85;5.28;;;10.90;99.90;;;;;;5138090;27;20034;-59
2024/01/30 06:25:38;;;;;;;10.07;5.18;;;10.90;99.90;;;;;;5120434;27;20031;-60
2024/01/30 06:28:04;;;;;;;8.43;5.15;;;10.90;99.90;;;;;;5138196;27;20298;-60
2024/01/30 06:30:30;;;;;;;9.55;4.78;;;10.90;99.90;;;;;;5120454;27;20098;-61
2024/01/30 06:32:56;;;;;;;9.77;4.97;;;10.90;99.90;;;;;;5120339;28;20035;-59
2024/01/30 06:35:22;;;;;;;8.70;5.22;;;10.90;99.90;;;;;;5120319;27;20046;-60
2024/01/30 06:37:48;;;;;;;9.10;4.75;;;11.00;99.90;;;;;;5137770;27;20058;-59
2024/01/30 06:40:14;;;;;;;9.20;5.50;;;11.00;99.90;;;;;;5138123;27;20034;-60
2024/01/30 06:42:40;;;;;;;8.65;5.32;;;11.00;99.90;;;;;;5137713;27;20055;-60
2024/01/30 06:45:06;;;;;;;8.95;5.28;;;11.00;99.90;;;;;;5120174;28;20402;-59
2024/01/30 06:47:32;;;;;;;12.15;5.65;;;11.00;99.90;;;;;;5137824;28;20043;-60
2024/01/30 06:49:58;;;;;;;11.45;5.25;;;11.00;99.90;;;;;;5137977;28;20031;-60
2024/01/30 06:52:23;;;;;;;12.05;5.57;;;11.00;99.90;;;;;;5137913;28;20031;-60
2024/01/30 06:54:52;;;;;;;9.98;4.93;;;11.00;99.90;;;;;;5137737;28;20092;-60
2024/01/30 06:57:18;;;;;;;10.82;5.32;;;11.00;99.90;;;;;;5137699;28;20031;-61
2024/01/30 06:59:44;;;;;;;12.30;5.63;;;11.10;99.90;;;;;;5137753;28;20122;-61
2024/01/30 07:02:10;;;;;;;10.75;5.53;;;11.20;99.90;;;;;;5137649;28;20462;-58
2024/01/30 07:04:37;;;;;;;9.75;5.40;;;11.30;99.90;;;;;;5137712;28;20111;-59
2024/01/30 07:07:05;;;;;;;8.82;5.22;;;11.30;99.90;;;;;;5137597;28;20043;-59
2024/01/30 07:09:31;;;;;;;7.38;4.82;;;11.30;99.90;;;;;;5137990;28;20398;-58
2024/01/30 07:11:58;;;;;;;12.60;5.57;;;11.30;99.90;;;;;;5137829;28;20061;-59
2024/01/30 07:14:25;;;;;;;10.35;5.18;;;11.30;99.90;;;;;;5137705;28;20290;-58
2024/01/30 07:16:51;;;;;;;11.55;5.45;;;11.40;99.90;;;;;;5137884;28;20072;-59
2024/01/30 07:19:17;;;;;;;10.50;5.25;;;11.40;99.90;;;;;;5137645;28;20023;-58
2024/01/30 07:21:43;;;;;;;11.48;5.57;;;11.40;99.90;;;;;;5119807;28;20032;-59
2024/01/30 07:24:09;;;;;;;12.40;5.78;;;11.40;99.90;;;;;;5137561;28;20114;-59
2024/01/30 07:26:35;;;;;;;10.73;5.28;;;11.40;99.90;;;;;;5137474;28;20085;-59
2024/01/30 07:29:01;;;;;;;11.15;5.28;;;11.50;99.90;;;;;;5102909;28;20092;-59
2024/01/30 07:31:27;;;;;;;10.95;5.82;;;11.40;99.90;;;;;;5137401;28;20027;-60
2024/01/30 07:33:54;;;;;;;9.98;5.78;;;11.40;99.90;;;;;;5137390;28;20035;-60
2024/01/30 07:36:20;;;;;;;11.93;5.68;;;11.40;99.90;;;;;;5137126;28;20039;-60
2024/01/30 07:38:46;;;;;;;12.82;4.70;;;11.40;99.90;;;;;;5137008;28;20120;-58
2024/01/30 07:41:12;;;;;;;10.73;5.80;;;11.60;99.90;;;;;;5102479;28;20035;-59
2024/01/30 07:43:38;;;;;;;11.65;5.38;;;11.60;96.80;;;;;;5102476;28;20024;-59
2024/01/30 07:46:06;;;;;;;13.38;5.82;;;11.50;99.90;;;;;;5119577;28;20046;-60
2024/01/30 07:48:33;;;;;;;12.05;6.03;;;11.40;99.90;;;;;;5119629;28;20293;-61
2024/01/30 07:51:00;;;;;;;11.45;5.80;;;11.40;99.90;;;;;;5137398;28;20041;-59
2024/01/30 07:53:26;;;;;;;10.88;5.90;;;11.40;99.90;;;;;;5137574;27;20110;-59
2024/01/30 07:55:52;;;;;;;12.20;5.72;;;11.40;99.90;;;;;;5140908;27;20118;-59
2024/01/30 07:58:19;;;;;;;13.90;6.50;;;11.40;99.90;;;;;;5140828;27;20382;-59
2024/01/30 08:00:45;;;;;;;11.27;5.43;;;11.40;99.90;;;;;;5123071;27;20098;-60
2024/01/30 08:03:10;;;;;;;9.50;5.75;;;11.40;99.90;;;;;;5089139;27;20034;-59
2024/01/30 08:05:39;;;;;;;12.43;5.68;;;11.40;99.90;;;;;;5123060;27;20035;-59
2024/01/30 08:08:05;;;;;;;14.30;5.88;;;11.30;99.90;;;;;;5140996;27;20023;-60
2024/01/30 08:10:30;;;;;;;16.13;6.35;;;11.30;99.90;;;;;;5123080;27;20035;-60
2024/01/30 08:12:56;;;;;;;9.15;4.93;;;11.40;99.90;;;;;;5122812;27;20046;-59
2024/01/30 08:15:22;;;;;;;9.65;5.10;;;11.40;99.90;;;;;;5140527;27;20039;-59
2024/01/30 08:17:48;;;;;;;8.60;5.03;;;11.40;99.90;;;;;;5122523;27;20038;-59
2024/01/30 08:20:14;;;;;;;12.57;5.75;;;11.40;99.90;;;;;;5140523;27;20087;-59
2024/01/30 08:22:40;;;;;;;7.57;5.15;;;11.50;99.90;;;;;;5122249;27;20027;-60
2024/01/30 08:25:07;;;;;;;11.93;5.30;;;11.50;99.90;;;;;;5122354;27;20035;-59
2024/01/30 08:27:35;;;;;;;11.43;5.43;;;11.50;99.90;;;;;;5140077;27;20302;-61
2024/01/30 08:30:01;;;;;;;11.15;5.32;;;11.50;99.90;;;;;;5140272;27;20167;-59
2024/01/30 08:32:27;;;;;;;10.98;5.70;;;11.50;99.90;;;;;;5140083;27;20038;-60
2024/01/30 08:34:53;;;;;;;9.07;5.25;;;11.50;99.90;;;;;;5122092;27;20031;-60
2024/01/30 08:37:19;;;;;;;14.00;5.78;;;11.50;99.90;;;;;;5139936;27;20035;-60
2024/01/30 08:39:45;;;;;;;10.38;5.43;;;11.50;99.90;;;;;;5139648;27;20074;-60
2024/01/30 08:42:11;;;;;;;10.73;5.50;;;11.50;99.90;;;;;;5105367;27;20302;-60
2024/01/30 08:44:37;;;;;;;8.45;5.30;;;11.50;99.90;;;;;;5122282;27;20031;-60
2024/01/30 08:47:03;;;;;;;8.27;5.20;;;11.60;99.90;;;;;;5139876;27;20288;-60
2024/01/30 08:49:29;;;;;;;8.50;5.43;;;11.60;99.90;;;;;;5122361;27;20027;-59
2024/01/30 08:51:54;;;;;;;10.52;5.40;;;11.60;99.90;;;;;;5139887;27;20083;-60
2024/01/30 08:54:20;;;;;;;10.93;5.75;;;11.50;99.90;;;;;;5139782;27;20034;-58
2024/01/30 08:56:46;;;;;;;10.65;5.60;;;11.60;99.90;;;;;;5121930;27;20032;-60
2024/01/30 08:59:12;;;;;;;10.95;5.78;;;11.50;99.90;;;;;;5139784;27;20057;-58
2024/01/30 09:01:38;;;;;;;10.43;5.28;;;11.50;99.90;;;;;;5139773;27;20062;-58
2024/01/30 09:04:04;;;;;;;11.20;5.45;;;11.50;99.90;;;;;;5121728;27;20428;-59
2024/01/30 09:06:30;;;;;;;13.73;5.82;;;11.60;99.90;;;;;;5087845;27;20082;-58
2024/01/30 09:08:57;;;;;;;8.65;5.57;;;11.60;99.90;;;;;;5139367;27;20032;-58
2024/01/30 09:11:23;;;;;;;9.27;5.35;;;11.60;99.90;;;;;;5122080;27;20035;-59
2024/01/30 09:13:49;;;;;;;8.07;5.35;;;11.70;99.90;;;;;;5139411;27;20406;-59
2024/01/30 09:16:16;;;;;;;11.57;5.35;;;11.60;99.90;;;;;;5121549;27;20031;-59
2024/01/30 09:18:42;;;;;;;8.60;5.50;;;11.70;99.90;;;;;;5139323;27;20035;-60
2024/01/30 09:21:08;;;;;;;7.75;4.90;;;11.60;99.90;;;;;;5121523;27;20027;-59
2024/01/30 09:23:33;;;;;;;8.90;5.43;;;11.60;99.90;;;;;;5139245;27;20092;-60
2024/01/30 09:26:00;;;;;;;8.90;5.93;;;11.70;99.90;;;;;;5121365;27;20038;-59
2024/01/30 09:28:26;;;;;;;11.52;5.82;;;11.70;99.90;;;;;;5139128;27;20106;-60
2024/01/30 09:30:52;;;;;;;11.80;5.63;;;11.80;99.90;;;;;;5104394;27;20066;-59
2024/01/30 09:33:18;;;;;;;9.05;5.90;;;11.90;99.90;;;;;;5104318;27;20427;-59
2024/01/30 09:35:44;;;;;;;8.35;5.90;;;12.00;99.90;;;;;;5139006;27;20159;-58
2024/01/30 09:38:10;;;;;;;7.15;5.40;;;11.90;99.90;;;;;;5138863;27;20058;-60
2024/01/30 09:40:36;;;;;;;12.07;6.43;;;12.00;99.90;;;;;;5121207;27;20397;-60
2024/01/30 09:43:02;;;;;;;9.18;5.95;;;12.00;99.90;;;;;;5138848;27;20042;-60
2024/01/30 09:45:29;;;;;;;13.70;6.00;;;12.00;99.90;;;;;;5121102;27;20042;-59
2024/01/30 09:47:55;;;;;;;12.00;6.57;;;11.90;99.90;;;;;;5138806;27;20398;-59
2024/01/30 09:50:21;;;;;;;11.25;6.85;;;11.90;99.90;;;;;;5138897;27;20061;-60
2024/01/30 09:52:48;;;;;;;10.45;6.47;;;12.00;99.90;;;;;;5138759;27;20019;-59
2024/01/30 09:55:14;;;;;;;11.57;6.90;;;12.10;99.90;;;;;;5138656;27;20046;-59
2024/01/30 09:57:42;;;;;;;14.57;7.10;;;11.80;99.90;;;;;;5138655;27;20042;-59
2024/01/30 10:00:08;;;;;;;11.43;6.93;;;11.70;99.90;;;;;;5138663;27;20293;-59
2024/01/30 10:02:40;;;;;;;14.85;6.45;;;11.60;99.90;;;;;;5138604;27;20054;-60
2024/01/30 10:05:07;;;;;;;11.73;7.13;;;11.60;99.90;;;;;;5120625;27;20133;-60
2024/01/30 10:07:34;;;;;;;11.02;7.07;;;11.70;99.90;;;;;;5138463;27;20038;-59
2024/01/30 10:10:00;;;;;;;15.32;7.97;;;11.60;99.90;;;;;;5138478;27;20047;-59
2024/01/30 10:12:30;;;;;;;10.70;7.95;;;11.70;99.90;;;;;;5138374;27;20059;-60
2024/01/30 10:14:57;;;;;;;11.93;7.30;;;11.80;99.90;;;;;;5138253;27;20463;-59
2024/01/30 10:17:27;;;;;;;17.80;7.60;;;11.80;99.90;;;;;;5137662;27;20319;-59
2024/01/30 10:19:52;;;;;;;15.43;7.40;;;11.90;99.90;;;;;;5138359;27;20031;-60
2024/01/30 10:22:19;;;;;;;14.15;8.00;;;11.90;99.90;;;;;;5138120;27;20027;-61
2024/01/30 10:24:45;;;;;;;9.77;6.85;;;11.90;99.90;;;;;;5120497;27;20043;-59
2024/01/30 10:27:11;;;;;;;14.48;7.00;;;12.00;99.90;;;;;;5120436;27;20038;-59
2024/01/30 10:29:37;;;;;;;15.30;6.63;;;12.00;99.90;;;;;;5138178;27;20180;-61
2024/01/30 10:32:05;;;;;;;12.77;5.93;;;12.20;99.90;;;;;;5138067;27;20027;-63
2024/01/30 10:34:32;;;;;;;10.15;5.22;;;12.20;99.90;;;;;;5137996;27;20332;-62
2024/01/30 10:37:20;;;;;;;11.63;5.65;;;12.20;97.70;;;;;;5103243;27;20024;-62
2024/01/30 10:39:46;;;;;;;11.82;5.53;;;12.20;98.30;;;;;;5137910;27;20051;-61
2024/01/30 10:42:17;;;;;;;8.23;4.10;;;12.40;92.20;;;;;;5138018;27;20031;-63
2024/01/30 10:45:01;;;;;;;8.02;2.85;;;12.40;68.40;;;;;;5137980;27;20302;-60
2024/01/30 10:47:28;;;;;;;5.22;2.17;;;12.30;25.80;;;;;;5137806;27;20035;-62
2024/01/30 10:49:55;;;;;;;6.15;1.40;;;12.00;24.40;;;;;;5137956;28;20034;-59
2024/01/30 10:52:25;;;;;;;3.30;1.30;;;12.00;4.70;;;;;;5103154;28;20041;-59
2024/01/30 10:54:52;;;;;;;1.83;1.00;;;12.00;1.00;;;;;;5119874;28;20027;-58
2024/01/30 10:57:18;;;;;;;2.47;0.65;;;12.20;1.00;;;;;;5137724;28;20027;-59
2024/01/30 10:59:46;;;;;;;2.58;0.63;;;12.10;1.00;;;;;;5137794;28;20131;-60
2024/01/30 11:02:13;;;;;;;3.60;0.68;;;12.00;1.00;;;;;;5119888;28;20031;-59
2024/01/30 11:04:41;;;;;;;3.67;0.65;;;11.90;1.00;;;;;;5119846;28;20062;-59
2024/01/30 11:07:29;;;;;;;4.32;0.60;;;11.70;1.00;;;;;;5137892;28;20127;-61
2024/01/30 11:10:00;;;;;;;2.50;0.60;;;11.40;1.00;;;;;;5119885;28;20028;-59
2024/01/30 11:12:27;;;;;;;2.78;0.50;;;11.30;1.00;;;;;;5137675;28;20031;-60
2024/01/30 11:15:15;;;;;;;2.10;0.63;;;11.40;1.00;;;;;;5137579;28;20055;-60
2024/01/30 11:17:53;;;;;;;1.25;0.32;;;11.90;1.00;;;;;;5137723;28;20031;-59
2024/01/30 11:20:26;;;;;;;2.67;0.45;;;12.40;1.00;;;;;;5138008;28;20347;-59
2024/01/30 11:22:54;;;;;;;1.83;0.45;;;12.90;1.00;;;;;;5119740;28;20023;-60
2024/01/30 11:25:21;;;;;;;1.17;0.30;;;13.40;1.00;;;;;;5120135;28;20058;-59
2024/01/30 11:27:50;;;;;;;4.68;0.47;;;13.60;99.90;;;;;;5119940;28;20091;-59
2024/01/30 11:30:26;;;;;;;2.72;0.40;;;13.60;99.90;;;;;;5140958;27;20290;-63
2024/01/30 11:33:12;;;;;;;1.02;0.43;;;13.40;99.90;;;;;;5141491;27;20405;-61
2024/01/30 11:35:40;;;;;;;1.33;0.30;;;13.00;1.00;;;;;;5141509;27;20023;-61
2024/01/30 11:38:08;;;;;;;4.45;0.50;;;12.70;1.00;;;;;;5123439;27;20047;-65
2024/01/30 11:40:35;;;;;;;2.55;0.30;;;12.80;1.00;;;;;;5123643;27;20046;-60
2024/01/30 11:43:02;;;;;;;1.52;0.20;;;13.00;99.90;;;;;;5141361;27;20034;-59
2024/01/30 11:45:29;;;;;;;3.92;0.60;;;13.30;99.90;;;;;;5141281;27;20110;-60
2024/01/30 11:47:55;;;;;;;0.50;0.20;;;13.70;1.00;;;;;;5141278;27;20034;-68
2024/01/30 11:50:21;;;;;;;3.65;0.43;;;13.30;1.00;;;;;;5106340;27;20032;-59
2024/01/30 11:52:48;;;;;;;2.80;0.40;;;13.00;1.00;;;;;;5141122;27;20080;-60
2024/01/30 11:55:14;;;;;;;3.03;0.40;;;12.80;94.30;;;;;;5106372;27;20319;-61
2024/01/30 11:57:40;;;;;;;1.85;0.32;;;12.90;99.90;;;;;;5123053;27;20019;-60
2024/01/30 12:00:13;;;;;;;1.77;0.57;;;13.00;99.90;;;;;;5141040;27;20051;-62
2024/01/30 12:02:40;;;;;;;1.08;0.40;;;12.80;99.90;;;;;;5123077;27;20089;-62
2024/01/30 12:05:06;;;;;;;1.10;0.40;;;12.90;99.90;;;;;;5141067;27;20023;-63
2024/01/30 12:07:33;;;;;;;2.72;0.52;;;12.80;99.90;;;;;;5140833;27;20038;-60
2024/01/30 12:10:00;;;;;;;1.52;0.43;;;12.80;1.00;;;;;;5140796;27;20046;-61
2024/01/30 12:12:27;;;;;;;3.70;0.50;;;12.90;1.00;;;;;;5122835;27;20398;-59
2024/01/30 12:14:53;;;;;;;1.23;0.40;;;12.80;1.00;;;;;;5140655;27;20032;-61
2024/01/30 12:17:30;;;;;;;1.23;0.40;;;12.80;23.00;;;;;;5140609;27;20043;-62
2024/01/30 12:20:23;;;;;;;4.65;0.73;;;12.80;99.90;;;;;;5122700;27;20031;-60
2024/01/30 12:22:49;;;;;;;1.48;0.35;;;12.80;99.90;;;;;;5118389;27;20035;-60
2024/01/30 12:25:17;;;;;;;1.10;0.38;;;12.60;99.90;;;;;;5122450;27;20099;-64
2024/01/30 12:27:45;;;;;;;2.75;0.43;;;12.50;99.90;;;;;;5140662;27;20414;-60
2024/01/30 12:30:13;;;;;;;3.47;0.40;;;12.40;99.90;;;;;;5140361;27;20272;-62
2024/01/30 12:32:45;;;;;;;2.00;0.52;;;12.20;1.00;;;;;;5140300;27;20410;-60
2024/01/30 12:35:11;;;;;;;1.38;0.60;;;12.20;1.00;;;;;;5105373;27;20297;-60
2024/01/30 12:37:41;;;;;;;3.38;0.60;;;12.20;1.00;;;;;;5139955;27;20028;-60
2024/01/30 12:40:11;;;;;;;2.17;0.45;;;12.30;1.00;;;;;;5121769;27;20365;-60
2024/01/30 12:42:37;;;;;;;2.97;0.38;;;12.40;1.00;;;;;;5140084;27;20023;-60